createdAt,value
2022-09-18T00:01:42.596Z,9.61
2022-09-18T00:04:17.233Z,9.86
2022-09-18T00:06:46.038Z,9.85
2022-09-18T00:09:15.996Z,9.85
2022-09-18T00:11:47.407Z,9.56
2022-09-18T00:14:21.340Z,9.82
2022-09-18T00:16:50.406Z,9.60
2022-09-18T00:19:18.700Z,9.78
2022-09-18T00:21:50.792Z,9.57
2022-09-18T00:24:19.676Z,9.59
2022-09-18T00:26:48.043Z,9.85
2022-09-18T00:29:17.937Z,9.89
2022-09-18T00:31:47.029Z,9.92
2022-09-18T00:34:16.684Z,9.72
2022-09-18T00:36:44.912Z,9.91
2022-09-18T00:39:13.171Z,9.68
2022-09-18T00:41:43.088Z,9.68
2022-09-18T00:44:32.893Z,9.89
2022-09-18T00:47:26.333Z,9.89
2022-09-18T00:50:05.150Z,9.62
2022-09-18T00:53:02.610Z,9.80
2022-09-18T00:55:38.497Z,9.75
2022-09-18T00:58:07.249Z,9.73
2022-09-18T01:00:38.357Z,9.21
2022-09-18T01:03:06.726Z,9.78
2022-09-18T01:06:16.802Z,9.77
2022-09-18T01:09:25.201Z,9.61
2022-09-18T01:12:29.382Z,9.77
2022-09-18T01:15:25.275Z,9.80
2022-09-18T01:18:22.132Z,9.81
2022-09-18T01:21:17.945Z,9.83
2022-09-18T01:24:29.103Z,9.82
2022-09-18T01:27:03.640Z,9.84
2022-09-18T01:30:00.753Z,9.88
2022-09-18T01:32:49.930Z,9.89
2022-09-18T01:35:41.072Z,9.90
2022-09-18T01:38:21.424Z,9.66
2022-09-18T01:40:56.683Z,9.94
2022-09-18T01:43:29.657Z,9.74
2022-09-18T01:46:10.161Z,9.92
2022-09-18T01:48:51.637Z,9.92
2022-09-18T01:51:36.202Z,9.90
2022-09-18T01:54:20.491Z,9.91
2022-09-18T01:57:14.525Z,9.83
2022-09-18T02:00:10.771Z,9.88
2022-09-18T02:03:05.587Z,9.76
2022-09-18T02:06:06.646Z,9.87
2022-09-18T02:08:49.517Z,9.86
2022-09-18T02:11:21.772Z,9.87
2022-09-18T02:14:05.717Z,9.88
2022-09-18T02:17:09.476Z,9.67
2022-09-18T02:19:47.541Z,9.87
2022-09-18T02:22:20.127Z,9.63
2022-09-18T02:24:51.954Z,9.88
2022-09-18T02:27:21.958Z,9.85
2022-09-18T02:29:50.005Z,9.85
2022-09-18T02:32:18.305Z,9.64
2022-09-18T02:34:46.639Z,9.52
2022-09-18T02:37:31.894Z,9.83
2022-09-18T02:40:27.844Z,9.83
2022-09-18T02:43:16.941Z,9.83
2022-09-18T02:46:01.360Z,9.80
2022-09-18T02:48:56.183Z,9.80
2022-09-18T02:51:55.895Z,9.76
2022-09-18T02:54:38.495Z,9.55
2022-09-18T02:57:21.050Z,9.66
2022-09-18T02:59:54.931Z,9.63
2022-09-18T03:02:23.745Z,9.60
2022-09-18T03:04:52.244Z,9.67
2022-09-18T03:07:40.823Z,9.66
2022-09-18T03:10:11.698Z,9.42
2022-09-18T03:12:39.598Z,9.62
2022-09-18T03:15:09.255Z,9.57
2022-09-18T03:17:37.331Z,9.61
2022-09-18T03:20:08.944Z,9.50
2022-09-18T03:22:36.990Z,9.34
2022-09-18T03:25:05.379Z,9.36
2022-09-18T03:27:34.765Z,9.59
2022-09-18T03:30:04.350Z,9.56
2022-09-18T03:32:34.703Z,9.56
2022-09-18T03:35:02.626Z,9.55
2022-09-18T03:37:31.177Z,9.53
2022-09-18T03:40:00.902Z,9.52
2022-09-18T03:42:29.311Z,9.55
2022-09-18T03:45:00.822Z,9.57
2022-09-18T03:47:31.892Z,9.55
2022-09-18T03:50:03.204Z,9.49
2022-09-18T03:52:34.641Z,9.39
2022-09-18T03:55:14.042Z,9.58
2022-09-18T03:58:09.072Z,9.39
2022-09-18T04:01:07.130Z,9.63
2022-09-18T04:03:53.635Z,9.44
2022-09-18T04:06:52.641Z,9.66
2022-09-18T04:09:40.925Z,9.52
2022-09-18T04:12:08.992Z,9.65
2022-09-18T04:14:37.151Z,9.65
2022-09-18T04:17:05.036Z,9.65
2022-09-18T04:19:33.152Z,9.47
2022-09-18T04:22:01.023Z,9.65
2022-09-18T04:24:29.171Z,9.65
2022-09-18T04:26:57.325Z,9.69
2022-09-18T04:29:27.815Z,9.68
2022-09-18T04:31:55.742Z,9.77
2022-09-18T04:34:26.364Z,9.73
2022-09-18T04:36:54.515Z,9.79
2022-09-18T04:39:22.805Z,9.78
2022-09-18T04:41:51.744Z,9.77
2022-09-18T04:44:20.678Z,9.62
2022-09-18T04:46:50.129Z,9.79
2022-09-18T04:49:19.057Z,9.73
2022-09-18T04:51:47.329Z,9.66
2022-09-18T04:54:17.014Z,9.85
2022-09-18T04:56:45.836Z,9.84
2022-09-18T04:59:14.236Z,9.78
2022-09-18T05:01:46.812Z,9.81
2022-09-18T05:04:16.823Z,9.54
2022-09-18T05:06:55.315Z,9.80
2022-09-18T05:09:24.043Z,9.71
2022-09-18T05:11:51.935Z,9.77
2022-09-18T05:14:20.797Z,9.55
2022-09-18T05:16:52.605Z,9.80
2022-09-18T05:19:27.351Z,9.59
2022-09-18T05:22:02.090Z,9.82
2022-09-18T05:24:32.834Z,9.79
2022-09-18T05:27:01.314Z,9.81
2022-09-18T05:29:30.440Z,9.63
2022-09-18T05:32:07.466Z,9.67
2022-09-18T05:34:37.024Z,9.53
2022-09-18T05:37:05.537Z,9.78
2022-09-18T05:39:33.538Z,9.78
2022-09-18T05:42:04.061Z,9.14
2022-09-18T05:44:32.108Z,9.64
2022-09-18T05:47:00.292Z,9.55
2022-09-18T05:49:29.201Z,9.69
2022-09-18T05:51:58.891Z,9.77
2022-09-18T05:54:31.295Z,9.62
2022-09-18T05:56:59.362Z,9.68
2022-09-18T05:59:27.427Z,9.67
2022-09-18T06:01:58.048Z,9.61
2022-09-18T06:04:44.113Z,9.70
2022-09-18T06:07:15.877Z,9.53
2022-09-18T06:09:44.856Z,9.71
2022-09-18T06:12:13.396Z,9.72
2022-09-18T06:14:41.372Z,9.69
2022-09-18T06:17:09.217Z,9.56
2022-09-18T06:19:37.577Z,9.71
2022-09-18T06:22:05.891Z,9.55
2022-09-18T06:24:35.662Z,9.75
2022-09-18T06:27:12.448Z,9.76
2022-09-18T06:29:40.985Z,9.76
2022-09-18T06:32:17.356Z,9.74
2022-09-18T06:34:45.977Z,9.78
2022-09-18T06:37:15.940Z,9.75
2022-09-18T06:39:44.211Z,9.67
2022-09-18T06:42:26.156Z,9.78
2022-09-18T06:45:13.120Z,9.77
2022-09-18T06:47:41.835Z,9.84
2022-09-18T06:50:10.281Z,9.88
2022-09-18T06:52:40.010Z,9.82
2022-09-18T06:55:08.736Z,9.84
2022-09-18T06:57:37.792Z,9.81
2022-09-18T07:00:07.265Z,9.90
2022-09-18T07:02:39.652Z,9.81
2022-09-18T07:05:46.568Z,9.95
2022-09-18T07:08:28.641Z,9.91
2022-09-18T07:11:05.434Z,9.93
2022-09-18T07:13:37.499Z,10.01
2022-09-18T07:16:07.532Z,9.71
2022-09-18T07:18:35.665Z,9.72
2022-09-18T07:21:05.292Z,9.78
2022-09-18T07:23:40.150Z,10.10
2022-09-18T07:26:08.189Z,10.09
2022-09-18T07:28:37.334Z,10.06
2022-09-18T07:31:17.844Z,10.21
2022-09-18T07:33:54.626Z,10.07
2022-09-18T07:36:29.447Z,10.07
2022-09-18T07:38:58.193Z,10.08
2022-09-18T07:41:33.712Z,10.21
2022-09-18T07:44:03.547Z,10.24
2022-09-18T07:46:33.945Z,10.31
2022-09-18T07:49:05.664Z,10.35
2022-09-18T07:51:33.643Z,10.38
2022-09-18T07:54:01.717Z,10.38
2022-09-18T07:56:50.204Z,10.21
2022-09-18T07:59:22.100Z,10.42
2022-09-18T08:01:57.175Z,10.45
2022-09-18T08:04:30.343Z,10.43
2022-09-18T08:07:21.957Z,10.38
2022-09-18T08:09:53.185Z,10.36
2022-09-18T08:12:47.307Z,10.31
2022-09-18T08:15:26.800Z,10.28
2022-09-18T08:18:12.843Z,10.25
2022-09-18T08:20:59.447Z,10.24
2022-09-18T08:23:39.005Z,10.22
2022-09-18T08:26:08.961Z,10.26
2022-09-18T08:28:37.611Z,10.23
2022-09-18T08:31:07.317Z,9.75
2022-09-18T08:33:35.357Z,9.95
2022-09-18T08:36:03.644Z,9.83
2022-09-18T08:38:37.934Z,9.55
2022-09-18T08:42:26.192Z,9.70
2022-09-18T08:45:05.746Z,9.65
2022-09-18T08:47:50.581Z,9.36
2022-09-18T08:50:37.616Z,9.51
2022-09-18T08:53:29.941Z,9.41
2022-09-18T08:56:21.726Z,9.28
2022-09-18T08:59:38.800Z,9.08
2022-09-18T09:02:16.060Z,9.03
2022-09-18T09:04:45.171Z,9.06
2022-09-18T09:07:47.230Z,8.88
2022-09-18T09:10:40.968Z,9.21
2022-09-18T09:13:56.731Z,9.22
2022-09-18T09:17:26.265Z,9.02
2022-09-18T09:20:11.392Z,8.81
2022-09-18T09:23:16.044Z,8.66
2022-09-18T09:26:10.180Z,8.98
2022-09-18T09:29:02.613Z,9.05
2022-09-18T09:32:05.290Z,9.10
2022-09-18T09:35:30.431Z,9.04
2022-09-18T09:38:44.650Z,8.98
2022-09-18T09:41:37.949Z,9.13
2022-09-18T09:44:35.826Z,9.00
2022-09-18T09:47:33.966Z,9.07
2022-09-18T09:50:57.011Z,9.00
2022-09-18T09:53:27.042Z,8.30
2022-09-18T09:56:29.391Z,8.99
2022-09-18T09:59:37.931Z,9.00
2022-09-18T10:02:52.397Z,9.05
2022-09-18T10:05:43.604Z,9.01
2022-09-18T10:11:17.137Z,8.95
2022-09-18T10:14:09.796Z,9.00
2022-09-18T10:16:46.271Z,8.99
2022-09-18T10:19:19.318Z,9.05
2022-09-18T10:21:51.679Z,9.14
2022-09-18T10:24:50.743Z,9.18
2022-09-18T10:27:20.341Z,9.21
2022-09-18T10:29:48.527Z,9.29
2022-09-18T10:32:43.706Z,9.26
2022-09-18T10:35:44.840Z,9.26
2022-09-18T10:38:34.687Z,9.49
2022-09-18T10:41:28.045Z,9.64
2022-09-18T10:44:04.745Z,9.64
2022-09-18T10:46:36.582Z,9.47
2022-09-18T10:49:41.087Z,9.65
2022-09-18T10:52:40.856Z,10.00
2022-09-18T10:55:27.111Z,9.98
2022-09-18T10:58:16.578Z,10.03
2022-09-18T11:01:03.046Z,10.43
2022-09-18T11:04:04.984Z,10.70
2022-09-18T11:06:38.754Z,10.73
2022-09-18T11:09:33.422Z,10.68
2022-09-18T11:12:02.943Z,10.34
2022-09-18T11:14:47.075Z,10.66
2022-09-18T11:17:33.941Z,10.74
2022-09-18T11:20:06.943Z,10.69
2022-09-18T11:22:53.744Z,10.83
2022-09-18T11:25:32.370Z,10.89
2022-09-18T11:28:32.481Z,11.10
2022-09-18T11:31:13.555Z,11.02
2022-09-18T11:33:55.339Z,11.09
2022-09-18T11:36:32.951Z,11.06
2022-09-18T11:39:18.680Z,11.21
2022-09-18T11:41:51.909Z,11.18
2022-09-18T11:44:29.440Z,10.87
2022-09-18T11:47:14.995Z,10.90
2022-09-18T11:50:18.050Z,11.13
2022-09-18T11:52:59.576Z,11.14
2022-09-18T11:55:56.044Z,10.79
2022-09-18T11:58:35.574Z,11.11
2022-09-18T12:01:33.729Z,11.05
2022-09-18T12:04:52.769Z,11.09
2022-09-18T12:07:46.202Z,11.26
2022-09-18T12:10:34.357Z,10.70
2022-09-18T12:13:45.670Z,11.82
2022-09-18T12:16:56.280Z,12.46
2022-09-18T12:19:48.481Z,12.74
2022-09-18T12:23:00.803Z,12.32
2022-09-18T12:26:30.670Z,12.13
2022-09-18T12:29:36.275Z,12.06
2022-09-18T12:32:22.743Z,12.08
2022-09-18T12:35:51.215Z,11.83
2022-09-18T12:38:40.870Z,11.82
2022-09-18T12:41:52.628Z,11.80
2022-09-18T12:45:21.020Z,11.30
2022-09-18T12:48:01.646Z,11.71
2022-09-18T12:50:50.559Z,11.70
2022-09-18T12:53:56.698Z,11.31
2022-09-18T12:56:43.814Z,11.65
2022-09-18T12:59:54.471Z,11.59
2022-09-18T13:02:47.103Z,11.66
2022-09-18T13:05:39.407Z,11.74
2022-09-18T13:08:58.713Z,11.80
2022-09-18T13:11:58.816Z,11.88
2022-09-18T13:14:35.055Z,11.88
2022-09-18T13:17:18.587Z,11.94
2022-09-18T13:19:59.952Z,11.94
2022-09-18T13:22:35.857Z,11.95
2022-09-18T13:25:20.397Z,12.11
2022-09-18T13:27:49.646Z,12.06
2022-09-18T13:30:32.422Z,11.98
2022-09-18T13:33:02.811Z,12.09
2022-09-18T13:35:37.310Z,12.01
2022-09-18T13:38:05.158Z,11.99
2022-09-18T13:40:42.062Z,11.64
2022-09-18T13:43:20.657Z,11.85
2022-09-18T13:45:49.484Z,11.59
2022-09-18T13:48:34.986Z,11.70
2022-09-18T13:51:07.369Z,11.71
2022-09-18T13:53:38.854Z,11.69
2022-09-18T13:56:13.380Z,11.56
2022-09-18T13:58:53.144Z,11.51
2022-09-18T14:01:43.139Z,11.55
2022-09-18T14:04:39.173Z,11.57
2022-09-18T14:07:19.883Z,11.63
2022-09-18T14:10:06.064Z,11.46
2022-09-18T14:12:36.023Z,11.65
2022-09-18T14:15:25.095Z,11.52
2022-09-18T14:18:22.437Z,11.71
2022-09-18T14:20:55.219Z,11.76
2022-09-18T14:23:38.825Z,11.56
2022-09-18T14:26:37.428Z,11.78
2022-09-18T14:29:17.424Z,11.75
2022-09-18T14:31:47.316Z,11.80
2022-09-18T14:34:34.081Z,11.77
2022-09-18T14:37:29.221Z,11.79
2022-09-18T14:39:59.197Z,11.73
2022-09-18T14:42:36.811Z,11.73
2022-09-18T14:45:14.217Z,11.73
2022-09-18T14:47:45.686Z,11.76
2022-09-18T14:50:35.135Z,11.76
2022-09-18T14:53:25.029Z,11.83
2022-09-18T14:56:08.126Z,11.71
2022-09-18T14:58:43.691Z,11.73
2022-09-18T15:01:33.886Z,11.76
2022-09-18T15:04:05.091Z,11.59
2022-09-18T15:06:50.511Z,11.60
2022-09-18T15:09:28.885Z,11.55
2022-09-18T15:12:04.787Z,11.76
2022-09-18T15:14:46.871Z,11.60
2022-09-18T15:17:28.642Z,11.63
2022-09-18T15:19:59.889Z,11.62
2022-09-18T15:22:30.441Z,11.43
2022-09-18T15:25:01.974Z,11.64
2022-09-18T15:27:30.459Z,11.55
2022-09-18T15:30:08.294Z,11.54
2022-09-18T15:32:43.540Z,11.64
2022-09-18T15:35:28.139Z,11.58
2022-09-18T15:38:03.784Z,11.56
2022-09-18T15:40:38.230Z,11.54
2022-09-18T15:43:35.612Z,11.56
2022-09-18T15:46:09.934Z,11.29
2022-09-18T15:48:40.940Z,11.44
2022-09-18T15:51:26.976Z,11.08
2022-09-18T15:54:12.283Z,11.53
2022-09-18T15:56:53.228Z,11.55
2022-09-18T15:59:34.337Z,11.58
2022-09-18T16:02:29.240Z,11.63
2022-09-18T16:05:07.063Z,11.30
2022-09-18T16:07:37.611Z,11.82
2022-09-18T16:10:34.375Z,11.89
2022-09-18T16:13:15.763Z,11.83
2022-09-18T16:15:51.775Z,11.82
2022-09-18T16:18:29.913Z,11.66
2022-09-18T16:21:06.606Z,11.79
2022-09-18T16:23:36.176Z,11.73
2022-09-18T16:26:08.558Z,11.38
2022-09-18T16:28:53.104Z,11.52
2022-09-18T16:31:24.664Z,11.41
2022-09-18T16:34:02.219Z,11.33
2022-09-18T16:36:40.212Z,11.19
2022-09-18T16:39:15.418Z,11.07
2022-09-18T16:41:44.245Z,10.80
2022-09-18T16:44:18.987Z,10.93
2022-09-18T16:46:55.828Z,10.87
2022-09-18T16:49:34.150Z,10.77
2022-09-18T16:52:03.260Z,10.72
2022-09-18T16:54:31.945Z,10.56
2022-09-18T16:57:10.345Z,10.50
2022-09-18T16:59:42.359Z,10.19
2022-09-18T17:02:17.201Z,9.95
2022-09-18T17:04:45.166Z,10.21
2022-09-18T17:07:13.372Z,9.90
2022-09-18T17:09:41.387Z,10.04
2022-09-18T17:12:09.761Z,10.00
2022-09-18T17:14:37.670Z,9.93
2022-09-18T17:17:06.567Z,9.83
2022-09-18T17:19:35.274Z,9.76
2022-09-18T17:22:03.329Z,9.72
2022-09-18T17:24:31.371Z,9.64
2022-09-18T17:26:59.499Z,9.61
2022-09-18T17:29:27.809Z,9.35
2022-09-18T17:31:59.135Z,9.26
2022-09-18T17:34:27.228Z,9.33
2022-09-18T17:36:56.101Z,9.60
2022-09-18T17:39:26.960Z,9.17
2022-09-18T17:41:55.837Z,9.34
2022-09-18T17:44:24.689Z,9.58
2022-09-18T17:46:54.192Z,9.57
2022-09-18T17:49:22.173Z,9.42
2022-09-18T17:51:50.103Z,9.49
2022-09-18T17:54:18.417Z,9.52
2022-09-18T17:56:47.875Z,9.52
2022-09-18T17:59:15.943Z,9.46
2022-09-18T18:01:46.669Z,9.37
2022-09-18T18:04:15.767Z,9.02
2022-09-18T18:06:46.614Z,9.29
2022-09-18T18:09:15.596Z,9.22
2022-09-18T18:11:46.506Z,9.16
2022-09-18T18:14:14.855Z,9.09
2022-09-18T18:16:43.153Z,9.02
2022-09-18T18:19:13.049Z,8.75
2022-09-18T18:21:43.057Z,8.61
2022-09-18T18:24:15.638Z,8.84
2022-09-18T18:26:46.086Z,8.54
2022-09-18T18:29:18.577Z,8.64
2022-09-18T18:31:49.483Z,8.27
2022-09-18T18:34:21.600Z,8.30
2022-09-18T18:36:50.706Z,8.54
2022-09-18T18:39:20.242Z,8.73
2022-09-18T18:41:48.824Z,8.84
2022-09-18T18:44:17.470Z,8.92
2022-09-18T18:46:45.549Z,8.75
2022-09-18T18:49:19.779Z,8.98
2022-09-18T18:51:48.844Z,8.99
2022-09-18T18:54:20.475Z,9.05
2022-09-18T18:56:50.024Z,9.09
2022-09-18T18:59:20.007Z,9.05
2022-09-18T19:01:48.292Z,9.06
2022-09-18T19:04:21.486Z,9.07
2022-09-18T19:06:50.510Z,9.03
2022-09-18T19:09:29.762Z,8.67
2022-09-18T19:11:58.369Z,9.06
2022-09-18T19:14:36.118Z,8.95
2022-09-18T19:17:05.193Z,8.91
2022-09-18T19:19:33.768Z,8.73
2022-09-18T19:22:02.001Z,9.03
2022-09-18T19:24:30.861Z,9.03
2022-09-18T19:26:59.237Z,8.99
2022-09-18T19:29:28.563Z,8.98
2022-09-18T19:31:57.814Z,8.93
2022-09-18T19:34:26.371Z,9.10
2022-09-18T19:36:54.805Z,9.11
2022-09-18T19:39:24.728Z,9.11
2022-09-18T19:42:03.635Z,9.07
2022-09-18T19:44:56.378Z,9.07
2022-09-18T19:47:46.571Z,8.96
2022-09-18T19:50:34.749Z,9.00
2022-09-18T19:53:03.750Z,8.99
2022-09-18T19:55:31.833Z,8.75
2022-09-18T19:58:01.621Z,8.94
2022-09-18T20:00:32.006Z,8.95
2022-09-18T20:03:01.806Z,8.62
2022-09-18T20:05:30.002Z,8.91
2022-09-18T20:07:58.013Z,8.85
2022-09-18T20:10:26.279Z,8.66
2022-09-18T20:12:55.339Z,8.81
2022-09-18T20:15:23.477Z,8.80
2022-09-18T20:17:51.505Z,8.80
2022-09-18T20:20:21.009Z,8.83
2022-09-18T20:22:54.102Z,8.50
2022-09-18T20:25:23.225Z,8.53
2022-09-18T20:27:51.323Z,8.52
2022-09-18T20:30:19.821Z,8.62
2022-09-18T20:32:47.842Z,8.76
2022-09-18T20:35:15.962Z,8.59
2022-09-18T20:37:44.655Z,8.69
2022-09-18T20:40:14.648Z,8.72
2022-09-18T20:42:42.951Z,8.80
2022-09-18T20:45:11.040Z,8.77
2022-09-18T20:47:38.962Z,8.58
2022-09-18T20:50:10.245Z,8.39
2022-09-18T20:52:42.140Z,8.81
2022-09-18T20:55:14.694Z,8.41
2022-09-18T20:57:46.404Z,8.70
2022-09-18T21:00:16.764Z,8.66
2022-09-18T21:02:49.918Z,8.67
2022-09-18T21:05:18.011Z,8.70
2022-09-18T21:07:46.218Z,8.60
2022-09-18T21:10:15.455Z,8.38
2022-09-18T21:12:43.477Z,8.50
2022-09-18T21:15:16.986Z,8.55
2022-09-18T21:17:45.066Z,8.63
2022-09-18T21:20:13.291Z,8.63
2022-09-18T21:23:03.273Z,8.63
2022-09-18T21:25:31.685Z,8.62
2022-09-18T21:27:59.589Z,8.59
2022-09-18T21:30:27.838Z,8.61
2022-09-18T21:32:56.003Z,8.58
2022-09-18T21:35:24.142Z,8.58
2022-09-18T21:37:53.808Z,8.62
2022-09-18T21:40:21.765Z,8.69
2022-09-18T21:42:50.769Z,8.74
2022-09-18T21:45:20.915Z,8.75
2022-09-18T21:47:50.539Z,8.81
2022-09-18T21:50:19.049Z,8.80
2022-09-18T21:52:47.110Z,8.72
2022-09-18T21:55:15.084Z,8.77
2022-09-18T21:57:43.487Z,8.72
2022-09-18T22:00:12.590Z,8.62
2022-09-18T22:02:43.374Z,8.62
2022-09-18T22:05:12.324Z,8.61
2022-09-18T22:07:41.002Z,8.57
2022-09-18T22:10:09.490Z,8.43
2022-09-18T22:12:39.005Z,8.36
2022-09-18T22:15:08.481Z,8.55
2022-09-18T22:17:36.445Z,8.43
2022-09-18T22:20:05.355Z,8.55
2022-09-18T22:22:33.771Z,8.27
2022-09-18T22:25:03.317Z,8.61
2022-09-18T22:27:31.132Z,8.59
2022-09-18T22:29:59.014Z,8.64
2022-09-18T22:32:27.153Z,8.69
2022-09-18T22:34:56.013Z,8.76
2022-09-18T22:37:23.973Z,8.57
2022-09-18T22:39:52.076Z,8.82
2022-09-18T22:42:20.149Z,8.86
2022-09-18T22:44:48.135Z,8.88
2022-09-18T22:47:16.911Z,8.81
2022-09-18T22:49:44.760Z,8.89
2022-09-18T22:52:12.768Z,8.67
2022-09-18T22:54:40.706Z,8.89
2022-09-18T22:57:08.578Z,8.30
2022-09-18T22:59:36.555Z,8.80
2022-09-18T23:02:06.656Z,8.46
2022-09-18T23:04:35.269Z,8.68
2022-09-18T23:07:04.129Z,8.42
2022-09-18T23:09:32.155Z,8.65
2022-09-18T23:12:00.178Z,8.65
2022-09-18T23:14:31.312Z,8.70
2022-09-18T23:17:01.050Z,8.72
2022-09-18T23:19:40.557Z,8.72
2022-09-18T23:22:10.192Z,8.72
2022-09-18T23:24:38.245Z,8.83
2022-09-18T23:27:06.353Z,8.77
2022-09-18T23:29:35.506Z,8.61
2022-09-18T23:32:04.478Z,8.71
2022-09-18T23:34:33.854Z,8.69
2022-09-18T23:37:02.011Z,8.47
2022-09-18T23:39:33.981Z,8.66
2022-09-18T23:42:04.003Z,8.63
2022-09-18T23:44:33.243Z,8.60
2022-09-18T23:47:03.097Z,8.59
2022-09-18T23:49:31.288Z,8.55
2022-09-18T23:51:59.993Z,8.52
2022-09-18T23:54:31.000Z,8.46
2022-09-18T23:56:59.240Z,8.40
2022-09-18T23:59:28.014Z,8.26
